.
WxDataArchive / Data Records for 2014-04-09
2014-04-08 April 2014 2014-04-10

Data Records for Wednesday, 09 April 2014

Time	Temp	Chill	HIndex	Humid	Dewpt	 Wind 	HiWind	WindDir	Rain 	Barom
-----	----	-----	------	-----	-----	------	------	-------	-----	-----
00:00	43.8	43.8	43.8	68	33.9	1	3	292	0.00	29.821 
00:05	43.6	43.6	43.6	68	33.7	1	3	292	0.00	29.821 
00:10	43.5	43.5	43.5	69	34.0	1	4	315	0.00	29.821 
00:15	43.3	43.3	43.3	69	33.8	0	2	315	0.00	29.825 
00:20	43.2	43.2	43.2	69	33.7	1	4	292	0.00	29.825 
00:25	43.1	43.1	43.1	70	34.0	1	3	292	0.00	29.825 
00:30	42.9	42.9	42.9	70	33.8	0	3	292	0.00	29.831 
00:35	42.8	42.8	42.8	70	33.7	1	4	292	0.00	29.831 
00:40	42.6	42.6	42.6	70	33.5	1	4	270	0.00	29.831 
00:45	42.6	42.6	42.6	70	33.5	1	3	315	0.00	29.833 
00:50	42.3	42.3	42.3	71	33.6	1	4	292	0.00	29.833 
00:55	42.2	42.2	42.2	71	33.5	1	5	315	0.00	29.833 
01:00	42.2	42.2	42.2	71	33.5	1	2	315	0.00	29.837 
01:05	42.1	42.1	42.1	71	33.4	1	4	315	0.00	29.837 
01:10	42.1	42.1	42.1	71	33.4	1	5	292	0.00	29.837 
01:15	41.9	41.9	41.9	71	33.2	1	4	315	0.00	29.840 
01:20	41.9	41.9	41.9	71	33.2	1	4	315	0.00	29.840 
01:25	41.8	41.8	41.8	71	33.1	1	3	315	0.00	29.840 
01:30	41.6	41.6	41.6	71	32.9	0	3	315	0.00	29.843 
01:35	41.5	41.5	41.5	72	33.2	1	3	292	0.00	29.843 
01:40	41.3	41.3	41.3	72	33.0	1	3	292	0.00	29.843 
01:45	41.2	41.2	41.2	72	32.9	1	3	315	0.00	29.849 
01:50	41.1	41.1	41.1	72	32.8	0	2	315	0.00	29.849 
01:55	41.1	41.1	41.1	72	32.8	1	3	315	0.00	29.849 
02:00	41.1	41.1	41.1	72	32.8	0	3	315	0.00	29.853 
02:05	40.9	40.9	40.9	72	32.6	0	3	270	0.00	29.853 
02:10	40.8	40.8	40.8	72	32.5	0	3	270	0.00	29.853 
02:15	40.6	40.6	40.6	72	32.3	0	2	270	0.00	29.857 
02:20	40.6	40.6	40.6	72	32.3	1	4	270	0.00	29.857 
02:25	40.6	40.6	40.6	72	32.3	0	3	270	0.00	29.857 
02:30	40.5	40.5	40.5	72	32.2	0	2	270	0.00	29.861 
02:35	40.3	40.3	40.3	72	32.0	0	2	270	0.00	29.861 
02:40	40.2	40.2	40.2	72	31.9	0	3	338	0.00	29.861 
02:45	40.1	40.1	40.1	73	32.2	0	2	338	0.00	29.868 
02:50	39.9	39.9	39.9	73	32.0	0	2	338	0.00	29.868 
02:55	39.8	39.8	39.8	73	31.9	0	2	338	0.00	29.868 
03:00	39.6	39.6	39.6	73	31.7	0	1	338	0.00	29.870 
03:05	39.6	39.6	39.6	73	31.7	0	2	338	0.00	29.870 
03:10	39.5	39.5	39.5	73	31.6	0	2	338	0.00	29.870 
03:15	39.5	39.5	39.5	73	31.6	0	1	338	0.00	29.871 
03:20	39.3	39.3	39.3	74	31.7	0	2	338	0.00	29.871 
03:25	39.2	39.2	39.2	74	31.6	0	1	338	0.00	29.871 
03:30	39.1	39.1	39.1	74	31.5	0	1	338	0.00	29.873 
03:35	38.9	38.9	38.9	75	31.7	0	2	338	0.00	29.873 
03:40	38.8	38.8	38.8	75	31.6	0	1	338	0.00	29.873 
03:45	38.6	38.6	38.6	75	31.4	0	2	338	0.00	29.873 
03:50	38.6	38.6	38.6	76	31.7	0	1	338	0.00	29.873 
03:55	38.6	38.6	38.6	76	31.7	0	2	338	0.00	29.873 
04:00	38.5	38.5	38.5	76	31.6	0	1	338	0.00	29.878 
04:05	38.5	38.5	38.5	76	31.6	0	1	338	0.00	29.878 
04:10	38.3	38.3	38.3	76	31.4	0	2	338	0.00	29.878 
04:15	38.3	38.3	38.3	76	31.4	0	1	338	0.00	29.880 
04:20	38.3	38.3	38.3	76	31.4	0	2	338	0.00	29.880 
04:25	38.2	38.2	38.2	76	31.3	0	1	338	0.00	29.880 
04:30	38.2	38.2	38.2	77	31.6	0	1	338	0.00	29.884 
04:35	38.2	38.2	38.2	77	31.6	0	2	338	0.00	29.884 
04:40	38.2	38.2	38.2	77	31.6	0	1	338	0.00	29.884 
04:45	38.2	38.2	38.2	77	31.6	0	1	338	0.00	29.888 
04:50	38.3	38.3	38.3	76	31.4	0	2	338	0.00	29.888 
04:55	38.3	38.3	38.3	76	31.4	0	2	338	0.00	29.888 
05:00	38.2	38.2	38.2	76	31.3	0	2	338	0.00	29.893 
05:05	38.2	38.2	38.2	76	31.3	0	1	338	0.00	29.893 
05:10	38.0	38.0	38.0	77	31.4	0	1	338	0.00	29.893 
05:15	38.0	38.0	38.0	77	31.4	0	2	338	0.00	29.900 
05:20	38.0	38.0	38.0	77	31.4	0	1	338	0.00	29.900 
05:25	38.0	38.0	38.0	77	31.4	0	2	338	0.00	29.900 
05:30	37.9	37.9	37.9	77	31.3	0	1	338	0.00	29.905 
05:35	37.9	37.9	37.9	77	31.3	0	2	338	0.00	29.905 
05:40	37.9	37.9	37.9	77	31.3	0	3	338	0.00	29.905 
05:45	37.8	37.8	37.8	77	31.2	0	1	270	0.00	29.908 
05:50	37.8	37.8	37.8	77	31.2	0	2	270	0.00	29.908 
05:55	37.8	37.8	37.8	77	31.2	0	2	270	0.00	29.908 
06:00	37.6	37.6	37.6	77	31.1	0	1	270	0.00	29.916 
06:05	37.5	37.5	37.5	77	31.0	0	1	270	0.00	29.916 
06:10	37.3	37.3	37.3	77	30.8	0	0	---	0.00	29.916 
06:15	37.2	37.2	37.2	77	30.7	0	0	---	0.00	29.920 
06:20	37.0	37.0	37.0	77	30.5	0	1	270	0.00	29.920 
06:25	36.9	36.9	36.9	77	30.4	0	0	---	0.00	29.920 
06:30	36.8	36.8	36.8	77	30.3	0	1	270	0.00	29.926 
06:35	36.6	36.6	36.6	77	30.1	0	0	---	0.00	29.926 
06:40	36.5	36.5	36.5	77	30.0	0	0	---	0.00	29.926 
06:45	36.3	36.3	36.3	77	29.8	0	0	---	0.00	29.935 
06:50	36.2	36.2	36.2	77	29.7	0	0	---	0.00	29.935 
06:55	36.0	36.0	36.0	77	29.5	0	0	---	0.00	29.935 
07:00	35.8	35.8	35.8	77	29.3	0	0	---	0.00	29.940 
07:05	35.5	35.5	35.5	77	29.0	0	0	---	0.00	29.940 
07:10	35.3	35.3	35.3	78	29.1	0	0	---	0.00	29.940 
07:15	35.0	35.0	35.0	78	28.8	0	0	---	0.00	29.950 
07:20	34.9	34.9	34.9	78	28.7	0	0	---	0.00	29.950 
07:25	34.9	34.9	34.9	78	28.7	0	0	---	0.00	29.950 
07:30	34.9	34.9	34.9	79	29.1	0	1	270	0.00	29.958 
07:35	35.0	35.0	35.0	79	29.2	0	0	---	0.00	29.958 
07:40	35.2	35.2	35.2	79	29.4	0	0	---	0.00	29.958 
07:45	35.3	35.3	35.3	79	29.4	0	0	---	0.00	29.966 
07:50	35.6	35.6	35.6	79	29.7	0	0	---	0.00	29.966 
07:55	35.9	35.9	35.9	79	30.0	0	0	---	0.00	29.966 
08:00	36.3	36.3	36.3	78	30.1	0	1	270	0.00	29.970 
08:05	36.8	36.8	36.8	77	30.3	0	0	---	0.00	29.970 
08:10	37.3	37.3	37.3	76	30.4	0	1	270	0.00	29.970 
08:15	37.8	37.8	37.8	75	30.6	0	1	270	0.00	29.979 
08:20	38.3	38.3	38.3	74	30.8	0	1	270	0.00	29.979 
08:25	38.8	38.8	38.8	73	30.9	0	1	270	0.00	29.979 
08:30	39.2	39.2	39.2	71	30.6	0	1	270	0.00	29.985 
08:35	39.6	39.6	39.6	69	30.3	0	1	270	0.00	29.985 
08:40	40.1	40.1	40.1	67	30.0	0	2	270	0.00	29.985 
08:45	40.3	40.3	40.3	65	29.5	1	3	270	0.00	29.989 
08:50	40.8	40.8	40.8	64	29.6	0	1	270	0.00	29.989 
08:55	41.2	41.2	41.2	62	29.2	0	3	270	0.00	29.989 
09:00	41.6	41.6	41.6	59	28.3	0	2	270	0.00	29.997 
09:05	41.9	41.9	41.9	57	27.8	0	1	270	0.00	29.997 
09:10	42.3	42.3	42.3	55	27.3	0	2	270	0.00	29.997 
09:15	42.9	42.9	42.9	55	27.9	0	2	270	0.00	30.002 
09:20	43.5	43.5	43.5	52	27.1	1	3	270	0.00	30.002 
09:25	43.9	43.9	43.9	51	27.0	0	2	270	0.00	30.002 
09:30	44.1	44.1	44.1	50	26.7	1	2	270	0.00	30.010 
09:35	44.3	44.3	44.3	50	26.8	0	2	202	0.00	30.010 
09:40	44.8	44.8	44.8	49	26.8	0	3	112	0.00	30.010 
09:45	45.2	45.2	45.2	49	27.2	0	3	45	0.00	30.013 
09:50	45.5	45.5	45.5	48	27.0	1	4	68	0.00	30.013 
09:55	46.0	46.0	46.0	48	27.4	0	2	68	0.00	30.013 
10:00	46.1	46.1	46.1	46	26.5	1	3	90	0.00	30.011 
10:05	46.2	46.2	46.2	46	26.6	0	3	90	0.00	30.011 
10:10	46.5	46.5	46.5	43	25.2	0	4	90	0.00	30.011 
10:15	47.0	47.0	47.0	44	26.2	1	4	112	0.00	30.016 
10:20	47.1	47.1	47.1	43	25.8	1	3	90	0.00	30.016 
10:25	47.4	47.4	47.4	46	27.7	0	2	0	0.00	30.016 
10:30	48.2	48.2	48.2	46	28.4	0	1	0	0.00	30.020 
10:35	48.8	48.8	48.8	44	27.9	0	2	0	0.00	30.020 
10:40	49.1	49.1	49.1	41	26.4	1	6	22	0.00	30.020 
10:45	49.6	49.6	49.6	43	28.0	1	3	112	0.00	30.024 
10:50	49.8	49.8	49.8	41	27.1	1	4	90	0.00	30.024 
10:55	50.1	50.1	50.1	40	26.7	0	2	90	0.00	30.024 
11:00	50.7	50.7	50.7	38	26.0	0	2	90	0.00	30.023 
11:05	50.8	50.8	50.8	40	27.4	0	2	90	0.00	30.023 
11:10	50.7	50.7	50.7	39	26.7	1	4	90	0.00	30.023 
11:15	51.0	51.0	51.0	40	27.5	0	3	90	0.00	30.026 
11:20	51.1	51.1	51.1	41	28.2	0	2	90	0.00	30.026 
11:25	51.1	51.1	51.1	38	26.4	0	1	90	0.00	30.026 
11:30	51.7	51.7	51.7	39	27.6	0	2	90	0.00	30.025 
11:35	52.0	52.0	52.0	37	26.5	0	2	90	0.00	30.025 
11:40	52.3	52.3	52.3	39	28.1	0	1	90	0.00	30.025 
11:45	52.6	52.6	52.6	38	27.7	1	3	90	0.00	30.024 
11:50	52.5	52.5	52.5	39	28.3	2	5	90	0.00	30.024 
11:55	52.6	52.6	52.6	39	28.4	0	3	90	0.00	30.024 
12:00	52.8	52.8	52.8	38	27.9	2	4	90	0.00	30.024 
12:05	53.1	53.1	53.1	43	31.2	0	2	90	0.00	30.024 
12:10	53.5	53.5	53.5	38	28.5	1	3	90	0.00	30.024 
12:15	53.6	53.6	53.6	39	29.3	1	3	90	0.00	30.024 
12:20	53.5	53.5	53.5	39	29.2	0	3	270	0.00	30.024 
12:25	54.1	54.1	54.1	39	29.7	1	3	270	0.00	30.024 
12:30	54.5	54.5	54.5	35	27.4	0	2	270	0.00	30.020 
12:35	54.8	54.8	54.8	37	29.0	1	3	270	0.00	30.020 
12:40	54.7	54.7	54.7	35	27.6	1	5	315	0.00	30.020 
12:45	54.4	54.4	54.4	35	27.3	2	4	270	0.00	30.018 
12:50	54.5	54.5	54.5	35	27.4	1	2	270	0.00	30.018 
12:55	54.8	54.8	54.8	34	27.0	1	3	270	0.00	30.018 
13:00	55.3	55.3	55.3	39	30.8	1	5	270	0.00	30.017 
13:05	55.7	55.7	55.7	40	31.8	0	3	202	0.00	30.017 
13:10	56.2	56.2	56.2	34	28.2	2	5	292	0.00	30.017 
13:15	56.2	56.2	56.2	35	28.9	1	4	248	0.00	30.016 
13:20	55.9	55.9	55.9	39	31.3	1	3	292	0.00	30.016 
13:25	56.2	56.2	56.2	36	29.6	1	2	338	0.00	30.016 
13:30	56.3	56.3	56.3	36	29.7	1	4	270	0.00	30.011 
13:35	56.2	56.2	56.2	38	30.9	2	4	248	0.00	30.011 
13:40	56.5	56.5	56.5	38	31.2	1	5	270	0.00	30.011 
13:45	57.0	57.0	57.0	38	31.6	2	5	270	0.00	30.008 
13:50	57.3	57.3	57.3	40	33.2	2	5	270	0.00	30.008 
13:55	57.8	57.8	57.8	39	33.0	2	6	270	0.00	30.008 
14:00	57.3	57.3	57.3	35	29.9	3	6	270	0.00	30.009 
14:05	56.9	56.9	56.9	36	30.2	3	6	270	0.00	30.009 
14:10	57.0	57.0	57.0	36	30.3	2	6	270	0.00	30.009 
14:15	56.6	56.6	56.6	37	30.6	2	5	270	0.00	30.008 
14:20	56.3	56.3	56.3	41	32.9	1	3	270	0.00	30.008 
14:25	56.6	56.6	56.6	41	33.2	1	4	248	0.00	30.008 
14:30	56.3	56.3	56.3	37	30.4	2	5	248	0.00	30.008 
14:35	55.9	55.9	55.9	37	30.0	2	6	248	0.00	30.008 
14:40	56.2	56.2	56.2	41	32.8	2	4	270	0.00	30.008 
14:45	57.2	57.2	57.2	41	33.7	2	4	292	0.00	30.001 
14:50	58.0	58.0	58.0	37	31.9	1	4	270	0.00	30.001 
14:55	57.8	57.8	57.8	40	33.6	1	3	270	0.00	30.001 
15:00	57.8	57.8	57.8	36	31.0	2	5	270	0.00	30.000 
15:05	57.2	57.2	57.2	35	29.8	2	5	270	0.00	30.000 
15:10	56.9	56.9	56.9	38	31.6	2	5	315	0.00	30.000 
15:15	57.6	57.6	57.6	41	34.1	1	3	315	0.00	29.995 
15:20	58.3	58.3	58.3	36	31.5	1	5	270	0.00	29.995 
15:25	57.3	57.3	57.3	33	28.4	1	3	248	0.00	29.995 
15:30	57.3	57.3	57.3	40	33.2	1	4	292	0.00	29.989 
15:35	58.3	58.3	58.3	36	31.5	2	5	248	0.00	29.989 
15:40	58.1	58.1	58.1	35	30.6	2	4	270	0.00	29.989 
15:45	57.6	57.6	57.6	38	32.2	2	9	292	0.00	29.984 
15:50	57.0	57.0	57.0	37	31.0	1	5	248	0.00	29.984 
15:55	56.7	56.7	56.7	39	32.0	1	3	292	0.00	29.984 
16:00	56.9	56.9	56.9	39	32.2	1	4	292	0.00	29.979 
16:05	57.8	57.8	57.8	36	31.0	3	7	270	0.00	29.979 
16:10	58.6	58.6	58.6	36	31.7	2	4	292	0.00	29.979 
16:15	58.4	58.4	58.4	36	31.6	2	6	270	0.00	29.982 
16:20	58.3	58.3	58.3	39	33.5	1	4	270	0.00	29.982 
16:25	58.4	58.4	58.4	39	33.5	1	2	270	0.00	29.982 
16:30	59.0	59.0	59.0	36	32.1	2	6	270	0.00	29.976 
16:35	58.9	58.9	58.9	35	31.3	2	7	270	0.00	29.976 
16:40	58.1	58.1	58.1	40	33.9	1	3	270	0.00	29.976 
16:45	58.3	58.3	58.3	37	32.1	1	4	248	0.00	29.970 
16:50	57.6	57.6	57.6	39	32.8	1	3	248	0.00	29.970 
16:55	57.2	57.2	57.2	39	32.5	1	3	248	0.00	29.970 
17:00	57.0	57.0	57.0	40	32.9	1	4	248	0.00	29.966 
17:05	57.5	57.5	57.5	38	32.1	1	4	270	0.00	29.966 
17:10	58.4	58.4	58.4	38	32.9	2	6	270	0.00	29.966 
17:15	59.2	59.2	59.2	34	30.8	1	6	248	0.00	29.962 
17:20	58.9	58.9	58.9	35	31.3	2	5	248	0.00	29.962 
17:25	59.0	59.0	59.0	34	30.7	1	4	248	0.00	29.962 
17:30	59.0	59.0	59.0	34	30.7	3	6	270	0.00	29.962 
17:35	59.0	59.0	59.0	34	30.7	2	6	270	0.00	29.962 
17:40	59.2	59.2	59.2	35	31.6	2	5	270	0.00	29.962 
17:45	59.3	59.3	59.3	35	31.7	1	7	248	0.00	29.961 
17:50	58.9	58.9	58.9	35	31.3	1	4	248	0.00	29.961 
17:55	58.9	58.9	58.9	36	32.0	1	3	270	0.00	29.961 
18:00	59.3	59.3	59.3	37	33.0	1	5	270	0.00	29.961 
18:05	59.6	59.6	59.6	36	32.6	2	4	270	0.00	29.961 
18:10	59.0	59.0	59.0	36	32.1	2	4	270	0.00	29.961 
18:15	58.6	58.6	58.6	37	32.4	2	6	270	0.00	29.964 
18:20	58.1	58.1	58.1	39	33.3	1	5	270	0.00	29.964 
18:25	58.0	58.0	58.0	36	31.2	2	6	270	0.00	29.964 
18:30	58.0	58.0	58.0	36	31.2	2	5	270	0.00	29.964 
18:35	58.0	58.0	58.0	38	32.5	1	3	270	0.00	29.964 
18:40	58.0	58.0	58.0	38	32.5	1	4	270	0.00	29.964 
18:45	57.8	57.8	57.8	38	32.4	2	5	270	0.00	29.964 
18:50	57.6	57.6	57.6	39	32.8	1	4	270	0.00	29.964 
18:55	57.6	57.6	57.6	39	32.8	1	4	270	0.00	29.964 
19:00	57.6	57.6	57.6	39	32.8	1	3	248	0.00	29.964 
19:05	57.6	57.6	57.6	39	32.8	2	4	270	0.00	29.964 
19:10	57.3	57.3	57.3	40	33.2	2	5	270	0.00	29.964 
19:15	57.2	57.2	57.2	41	33.7	1	4	292	0.00	29.966 
19:20	57.2	57.2	57.2	41	33.7	2	4	270	0.00	29.966 
19:25	57.0	57.0	57.0	40	32.9	1	4	248	0.00	29.966 
19:30	56.9	56.9	56.9	41	33.4	1	5	248	0.00	29.966 
19:35	56.7	56.7	56.7	41	33.3	1	3	248	0.00	29.966 
19:40	56.6	56.6	56.6	42	33.8	1	3	248	0.00	29.966 
19:45	56.5	56.5	56.5	42	33.7	0	2	248	0.00	29.966 
19:50	56.3	56.3	56.3	42	33.5	1	3	248	0.00	29.966 
19:55	56.2	56.2	56.2	43	34.0	1	4	248	0.00	29.966 
20:00	55.9	55.9	55.9	44	34.3	0	1	248	0.00	29.965 
20:05	55.6	55.6	55.6	44	34.0	0	1	248	0.00	29.965 
20:10	55.3	55.3	55.3	45	34.3	0	1	248	0.00	29.965 
20:15	55.0	55.0	55.0	46	34.6	0	1	248	0.00	29.957 
20:20	54.7	54.7	54.7	46	34.3	0	1	248	0.00	29.957 
20:25	54.4	54.4	54.4	46	34.1	0	1	248	0.00	29.957 
20:30	54.1	54.1	54.1	47	34.3	0	1	248	0.00	29.956 
20:35	53.8	53.8	53.8	47	34.0	0	1	248	0.00	29.956 
20:40	53.5	53.5	53.5	48	34.3	0	1	248	0.00	29.956 
20:45	53.2	53.2	53.2	49	34.5	0	0	---	0.00	29.957 
20:50	52.8	52.8	52.8	50	34.7	0	0	---	0.00	29.957 
20:55	52.3	52.3	52.3	50	34.2	0	0	---	0.00	29.957 
21:00	51.7	51.7	51.7	51	34.2	0	0	---	0.00	29.957 
21:05	51.4	51.4	51.4	52	34.4	0	0	---	0.00	29.957 
21:10	51.0	51.0	51.0	53	34.5	0	0	---	0.00	29.957 
21:15	50.5	50.5	50.5	54	34.5	0	0	---	0.00	29.954 
21:20	50.2	50.2	50.2	55	34.7	0	1	248	0.00	29.954 
21:25	50.1	50.1	50.1	55	34.6	0	0	---	0.00	29.954 
21:30	49.8	49.8	49.8	56	34.7	0	0	---	0.00	29.949 
21:35	49.6	49.6	49.6	57	35.0	0	0	---	0.00	29.949 
21:40	49.4	49.4	49.4	57	34.8	0	0	---	0.00	29.949 
21:45	49.1	49.1	49.1	58	35.0	0	0	---	0.00	29.949 
21:50	48.8	48.8	48.8	59	35.1	0	0	---	0.00	29.949 
21:55	48.5	48.5	48.5	59	34.8	0	0	---	0.00	29.949 
22:00	48.3	48.3	48.3	60	35.1	0	0	---	0.00	29.949 
22:05	48.2	48.2	48.2	61	35.4	0	0	---	0.00	29.949 
22:10	48.0	48.0	48.0	61	35.2	0	0	---	0.00	29.949 
22:15	47.9	47.9	47.9	62	35.5	0	0	---	0.00	29.945 
22:20	47.6	47.6	47.6	62	35.2	0	0	---	0.00	29.945 
22:25	47.4	47.4	47.4	63	35.4	0	0	---	0.00	29.945 
22:30	47.4	47.4	47.4	63	35.4	0	1	248	0.00	29.943 
22:35	47.6	47.6	47.6	64	36.0	0	0	---	0.00	29.943 
22:40	47.6	47.6	47.6	64	36.0	0	1	248	0.00	29.943 
22:45	47.6	47.6	47.6	64	36.0	0	1	248	0.00	29.943 
22:50	47.7	47.7	47.7	64	36.1	0	1	248	0.00	29.943 
22:55	47.9	47.9	47.9	64	36.3	0	1	248	0.00	29.943 
23:00	48.0	48.0	48.0	63	36.0	0	1	248	0.00	29.943 
23:05	48.2	48.2	48.2	63	36.2	0	1	248	0.00	29.943 
23:10	48.3	48.3	48.3	63	36.3	0	1	248	0.00	29.943 
23:15	48.3	48.3	48.3	63	36.3	0	1	248	0.00	29.939 
23:20	48.3	48.3	48.3	63	36.3	0	0	---	0.00	29.939 
23:25	48.3	48.3	48.3	62	35.9	0	1	248	0.00	29.939 
23:30	48.3	48.3	48.3	62	35.9	0	0	---	0.00	29.936 
23:35	48.2	48.2	48.2	62	35.8	0	0	---	0.00	29.936 
23:40	48.0	48.0	48.0	63	36.0	0	1	248	0.00	29.936 
23:45	47.9	47.9	47.9	63	35.9	0	1	248	0.00	29.939 
23:50	48.0	48.0	48.0	62	35.6	0	0	---	0.00	29.939 
23:55	48.2	48.2	48.2	62	35.8	0	1	248	0.00	29.939 

CoCoRaHS
IN-AL-39
A2 Web Hosting
Creative Commons License
GoDaddy
search engine by freefind advanced

loaded 2018-11-16 23:17:47 • last modified 2010-11-18 10:43:29
Privacy PolicyDisclaimer
• wx.awcolley.com is powered by PmWiki v.2002016 •
• all content (unless otherwise noted) © 2018 A W Colley